Latest Weather Observations for Newman Airport

IDW60801

Issued at 1:05 pm WST Saturday 23 August 2014 (issued every 30 minutes, with the page automatically refreshed every 10 minutes)

About weather observations | Map of weather stations | Latest weather observations for WA | Other Formats
Station Details ID: 007176 Name: NEWMAN AERO Lat: -23.42 Lon: 119.80 Height: 524.0 m
Data from the previous 72 hours. | See also: Recent months at Newman Airport
Date/Time
WST
Temp
°C
App
Temp
°C
Dew
Point
Rel
Hum
%
Delta-T
°C
Wind Press
QNH
hPa
Press
MSL
hPa
Rain
since 9 am
mm
Dir
 
Spd
km/h
Gust
km/h
Spd
kts
Gust
kts
23/01:00pm 28.2 23.6 -7.6 9 15.1 N 9 15 5 8 1021.4 - 0.0
23/12:30pm 27.6 21.6 -6.7 10 14.6 NNE 17 26 9 14 1021.9 - 0.0
23/12:00pm 27.3 22.0 -6.9 10 14.5 NE 13 20 7 11 1022.3 1020.9 0.0
23/11:30am 27.2 22.4 -5.8 11 14.3 NE 11 26 6 14 1022.7 - 0.0
23/11:00am 26.0 21.2 -5.6 12 13.6 ENE 11 19 6 10 1023.0 - 0.0
23/10:30am 25.0 20.4 -4.3 14 12.8 NE 11 20 6 11 1023.3 - 0.0
23/10:00am 24.4 19.4 -3.9 15 12.4 ENE 13 22 7 12 1023.4 - 0.0
23/09:30am 22.9 19.5 -1.9 19 11.1 ENE 6 11 3 6 1023.4 - 0.0
23/09:00am 20.9 17.4 -1.6 22 9.9 E 7 9 4 5 1023.3 1022.0 0.2
23/08:30am 18.5 16.2 -2.4 24 8.9 CALM 0 6 0 3 1023.2 - 0.2
23/08:00am 15.7 13.4 -2.3 29 7.5 CALM 0 0 0 0 1022.8 - 0.2
23/07:30am 13.3 9.8 -2.6 33 6.4 S 6 7 3 4 1022.5 - 0.2
23/07:00am 9.6 6.0 -2.0 44 4.6 SSW 7 9 4 5 1022.3 - 0.2
23/06:30am 8.0 4.9 -2.9 46 4.1 WSW 4 9 2 5 1021.9 - 0.2
23/06:00am 8.6 5.0 -3.3 43 4.5 SW 6 7 3 4 1021.6 1020.2 0.2
23/05:30am 8.5 4.8 -3.0 44 4.4 WSW 7 7 4 4 1021.2 - 0.2
23/05:00am 9.2 5.7 -3.0 42 4.7 WSW 6 7 3 4 1020.8 - 0.2
23/04:30am 9.1 5.6 -2.8 43 4.6 WSW 6 7 3 4 1020.5 - 0.2
23/04:00am 9.4 5.7 -2.5 43 4.6 WSW 7 7 4 4 1020.2 - 0.2
23/03:30am 9.8 7.4 -2.8 41 4.9 CALM 0 0 0 0 1020.1 - 0.2
23/03:00am 10.2 7.9 -2.4 41 4.9 CALM 0 0 0 0 1020.1 1018.7 0.2
23/02:30am 10.8 8.4 -2.9 38 5.4 CALM 0 0 0 0 1020.2 - 0.2
23/02:00am 11.2 8.8 -2.9 37 5.5 CALM 0 0 0 0 1020.2 - 0.2
23/01:30am 11.9 8.8 -2.7 36 5.8 WSW 4 7 2 4 1020.3 - 0.2
23/01:00am 12.3 8.7 -2.3 36 5.9 SSW 7 9 4 5 1020.4 - 0.2
23/12:30am 13.1 10.4 -2.4 34 6.3 SSE 2 6 1 3 1020.5 - 0.2
23/12:00am 14.3 10.6 -3.0 30 7.0 SSE 7 9 4 5 1020.5 1019.1 0.2
 
Date/Time
WST
Temp
°C
App
Temp
°C
Dew
Point
Rel
Hum
%
Delta-T
°C
Wind Press
QNH
hPa
Press
MSL
hPa
Rain
since 9 am
mm
Dir
 
Spd
km/h
Gust
km/h
Spd
kts
Gust
kts
22/11:30pm 15.4 11.7 -3.0 28 7.5 SSE 7 9 4 5 1020.6 - 0.2
22/11:00pm 15.6 11.5 -2.8 28 7.6 S 9 13 5 7 1020.5 - 0.2
22/10:30pm 15.5 11.9 -2.4 29 7.4 SW 7 9 4 5 1020.7 - 0.2
22/10:00pm 16.3 14.0 -2.7 27 7.9 CALM 0 0 0 0 1020.6 - 0.2
22/09:30pm 16.9 13.5 -2.2 27 8.1 ENE 6 7 3 4 1020.5 - 0.2
22/09:00pm 17.4 14.3 -2.3 26 8.3 NNE 4 7 2 4 1020.4 1019.0 0.2
22/08:30pm 19.7 16.0 -2.6 22 9.6 NNE 7 9 4 5 1020.4 - 0.2
22/08:00pm 20.8 17.1 -3.0 20 10.3 NNW 7 11 4 6 1020.0 - 0.2
22/07:30pm 22.0 17.5 -3.4 18 11.0 NNE 11 11 6 6 1019.4 - 0.2
22/07:00pm 23.1 18.9 -4.1 16 11.7 NE 9 13 5 7 1019.1 - 0.2
22/06:30pm 24.2 20.0 -4.0 15 12.3 NE 9 9 5 5 1018.7 - 0.2
22/06:00pm 25.5 21.5 -6.0 12 13.4 NE 7 9 4 5 1018.2 1016.8 0.2
22/05:30pm 27.1 23.0 -7.1 10 14.4 ENE 7 13 4 7 1018.0 - 0.2
22/05:00pm 27.8 23.2 -7.9 9 15.0 NE 9 17 5 9 1017.8 - 0.2
22/04:30pm 28.2 23.6 -7.6 9 15.1 NE 9 20 5 11 1017.5 - 0.2
22/04:00pm 29.0 24.7 -8.5 8 15.7 NW 7 13 4 7 1017.3 - 0.2
22/03:30pm 28.4 23.3 -9.0 8 15.4 N 11 19 6 10 1017.1 - 0.2
22/03:00pm 28.6 24.1 -7.3 9 15.3 SSE 9 15 5 8 1017.2 1015.8 0.2
22/02:30pm 28.3 23.6 -9.1 8 15.4 NNE 9 17 5 9 1017.5 - 0.2
22/02:00pm 28.0 23.0 -7.8 9 15.1 N 11 20 6 11 1017.8 - 0.2
22/01:30pm 28.5 23.9 -7.4 9 15.3 WNW 9 15 5 8 1018.0 - 0.2
22/01:00pm 28.1 23.5 -7.7 9 15.1 N 9 17 5 9 1018.3 - 0.2
22/12:30pm 28.0 22.7 -7.8 9 15.1 NW 13 20 7 11 1018.6 - 0.2
22/12:16pm 28.1 19.1 -6.3 10 14.9 NNE 33 56 18 30 1018.8 - 0.2
22/12:00pm 28.1 23.9 -7.7 9 15.1 E 7 13 4 7 1019.1 1017.7 0.0
22/11:30am 27.4 22.9 -6.9 10 14.6 ENE 9 17 5 9 1019.6 - 0.0
22/11:00am 27.1 23.1 -5.9 11 14.2 SE 7 15 4 8 1020.0 - 0.0
22/10:30am 25.7 21.0 -4.7 13 13.2 SE 11 15 6 8 1020.3 - 0.0
22/10:00am 24.3 19.0 -4.0 15 12.3 SE 15 19 8 10 1020.7 - 0.0
22/09:30am 22.5 17.2 -3.7 17 11.3 SSE 15 20 8 11 1020.9 - 0.0
22/09:00am 20.7 17.0 -3.0 20 10.2 SSE 7 9 4 5 1020.9 1019.6 0.0
22/08:30am 18.1 14.4 -3.3 23 8.9 SW 7 9 4 5 1020.8 - 0.0
22/08:00am 16.4 14.0 -3.1 26 8.1 CALM 0 0 0 0 1020.6 - 0.0
22/07:30am 12.4 8.8 -3.4 33 6.2 N 6 9 3 5 1020.2 - 0.0
22/07:00am 10.7 6.5 -4.1 35 5.6 SW 9 11 5 6 1019.8 - 0.0
22/06:30am 9.1 4.8 -4.4 38 5.0 WSW 9 11 5 6 1019.6 - 0.0
22/06:00am 9.5 5.2 -4.8 36 5.3 WSW 9 13 5 7 1019.3 1018.0 0.0
22/05:30am 9.4 5.5 -4.9 36 5.3 SW 7 9 4 5 1019.0 - 0.0
22/05:00am 9.7 5.8 -4.6 36 5.3 SW 7 9 4 5 1018.6 - 0.0
22/04:30am 10.1 6.8 -4.6 35 5.5 W 4 9 2 5 1018.4 - 0.0
22/04:00am 9.5 6.3 -3.7 39 5.0 SW 4 9 2 5 1018.1 - 0.0
22/03:30am 9.7 6.0 -3.2 40 5.0 SW 7 9 4 5 1017.8 - 0.0
22/03:00am 10.4 7.3 -2.9 39 5.2 S 4 7 2 4 1017.9 1016.5 0.0
22/02:30am 10.7 8.3 -3.0 38 5.3 CALM 0 0 0 0 1018.0 - 0.0
22/02:00am 11.8 9.4 -2.8 36 5.8 CALM 0 0 0 0 1018.2 - 0.0
22/01:30am 11.9 8.3 -3.4 34 6.0 NW 6 7 3 4 1018.1 - 0.0
22/01:00am 13.1 9.6 -3.2 32 6.5 N 6 7 3 4 1018.1 - 0.0
22/12:30am 14.2 10.7 -3.1 30 7.0 W 6 7 3 4 1018.3 - 0.0
22/12:00am 13.7 9.9 -3.5 30 6.8 WSW 7 9 4 5 1018.5 1017.1 0.0
 
Date/Time
WST
Temp
°C
App
Temp
°C
Dew
Point
Rel
Hum
%
Delta-T
°C
Wind Press
QNH
hPa
Press
MSL
hPa
Rain
since 9 am
mm
Dir
 
Spd
km/h
Gust
km/h
Spd
kts
Gust
kts
21/11:30pm 15.0 10.8 -3.8 27 7.5 SSW 9 11 5 6 1018.6 - 0.0
21/11:00pm 15.2 11.1 -3.2 28 7.5 SSW 9 15 5 8 1018.6 - 0.0
21/10:30pm 17.5 13.9 -3.3 24 8.6 NNE 6 7 3 4 1018.3 - 0.0
21/10:00pm 18.5 14.3 -3.6 22 9.2 NNW 9 13 5 7 1018.2 - 0.0
21/09:30pm 19.2 15.0 -4.3 20 9.7 NNW 9 11 5 6 1018.2 - 0.0
21/09:00pm 18.4 14.2 -4.3 21 9.3 NNW 9 11 5 6 1018.1 1016.7 0.0
21/08:30pm 18.2 14.3 -4.5 21 9.3 N 7 9 4 5 1018.0 - 0.0
21/08:00pm 18.7 14.7 -5.4 19 9.7 N 7 9 4 5 1017.8 - 0.0
21/07:30pm 20.4 16.0 -6.2 16 10.7 N 9 11 5 6 1017.5 - 0.0
21/07:00pm 20.4 17.7 -6.2 16 10.7 CALM 0 0 0 0 1017.0 - 0.0
21/06:30pm 23.1 18.9 -7.8 12 12.4 N 7 9 4 5 1016.6 - 0.0
21/06:00pm 24.7 20.0 -8.9 10 13.4 N 9 11 5 6 1016.2 1014.8 0.0
21/05:30pm 26.1 20.1 -10.7 8 14.4 N 15 20 8 11 1015.9 - 0.0
21/05:00pm 26.9 20.9 -11.8 7 15.0 N 15 24 8 13 1015.8 - 0.0
21/04:30pm 27.8 22.5 -13.0 6 15.6 N 11 20 6 11 1015.5 - 0.0
21/04:00pm 28.0 22.3 -12.9 6 15.7 NNW 13 20 7 11 1015.3 - 0.0
21/03:30pm 28.4 22.7 -12.6 6 15.9 N 13 20 7 11 1015.3 - 0.0
21/03:00pm 28.4 21.6 -12.6 6 15.9 NNW 19 30 10 16 1015.5 1014.0 0.0
21/02:30pm 28.4 23.2 -10.7 7 15.7 NW 11 19 6 10 1015.6 - 0.0
21/02:00pm 27.6 22.1 -9.6 8 15.1 NE 13 22 7 12 1015.7 - 0.0
21/01:30pm 28.0 21.4 -9.3 8 15.3 N 19 26 10 14 1016.0 - 0.0
21/01:00pm 27.1 22.1 -8.5 9 14.7 NE 11 20 6 11 1016.3 - 0.0
21/12:30pm 26.1 20.6 -5.5 12 13.6 NE 15 22 8 12 1016.7 - 0.0
21/12:00pm 25.9 22.0 -4.6 13 13.3 E 7 15 4 8 1017.2 1015.8 0.0
21/11:30am 25.5 20.8 -4.9 13 13.2 WNW 11 24 6 13 1017.8 - 0.0
21/11:00am 24.5 20.8 -2.9 16 12.2 NE 7 13 4 7 1018.3 - 0.0
21/10:30am 23.9 19.9 -2.6 17 11.8 SW 9 13 5 7 1018.7 - 0.0
21/10:00am 23.5 19.0 -2.9 17 11.7 WSW 11 15 6 8 1018.9 - 0.0
21/09:30am 22.5 17.7 -2.2 19 11.0 WSW 13 19 7 10 1019.1 - 0.0
21/09:00am 20.8 17.0 -1.1 23 9.8 WSW 9 15 5 8 1019.1 1017.7 0.0
21/08:30am 17.8 14.4 -0.5 29 8.1 SSW 7 13 4 7 1019.1 - 0.0
21/08:00am 14.9 11.5 -0.4 35 6.6 SSW 7 11 4 6 1018.6 - 0.0
21/07:30am 11.9 9.8 -0.9 41 5.3 CALM 0 0 0 0 1018.2 - 0.0
21/07:00am 9.0 6.9 -0.9 50 4.0 CALM 0 0 0 0 1018.0 - 0.0
21/06:30am 8.1 6.0 -1.1 52 3.6 CALM 0 0 0 0 1017.5 - 0.0
21/06:00am 8.0 4.8 -0.7 54 3.5 SW 6 11 3 6 1017.2 1015.8 0.0
21/05:30am 8.4 6.3 -0.9 52 3.7 CALM 0 0 0 0 1016.9 - 0.0
21/05:00am 8.6 6.6 -0.2 54 3.6 CALM 0 0 0 0 1016.6 - 0.0
21/04:30am 9.2 6.0 -0.7 50 4.0 SSW 6 9 3 5 1016.3 - 0.0
21/04:00am 11.1 8.9 0.8 49 4.4 S 2 7 1 4 1016.1 - 0.0
21/03:30am 9.5 7.4 -0.7 49 4.1 CALM 0 7 0 4 1016.1 - 0.0
21/03:00am 11.6 8.9 0.4 46 4.8 ENE 4 7 2 4 1016.0 1014.6 0.0
21/02:30am 11.6 8.9 0.1 45 4.9 NE 4 9 2 5 1016.2 - 0.0
21/02:00am 11.7 9.7 -0.4 43 5.1 CALM 0 0 0 0 1016.2 - 0.0
21/01:30am 12.7 9.9 -0.5 40 5.6 ESE 4 7 2 4 1016.3 - 0.0
21/01:00am 13.4 11.3 -0.6 38 5.9 CALM 0 0 0 0 1016.8 - 0.0
21/12:30am 13.9 11.0 -0.9 36 6.3 SW 4 9 2 5 1017.0 - 0.0
21/12:00am 13.7 9.5 -0.7 37 6.1 SW 11 13 6 7 1017.1 1015.7 0.0
 
Date/Time
WST
Temp
°C
App
Temp
°C
Dew
Point
Rel
Hum
%
Delta-T
°C
Wind Press
QNH
hPa
Press
MSL
hPa
Rain
since 9 am
mm
Dir
 
Spd
km/h
Gust
km/h
Spd
kts
Gust
kts
20/11:30pm 14.2 11.5 0.1 38 6.1 SSE 4 7 2 4 1017.0 - 0.0
20/11:00pm 14.3 12.0 0.2 38 6.1 SSW 2 6 1 3 1017.2 - 0.0
20/10:30pm 14.6 11.6 0.5 38 6.2 N 6 7 3 4 1017.2 - 0.0
20/10:00pm 14.7 11.5 -0.6 35 6.6 NW 6 9 3 5 1017.5 - 0.0
20/09:30pm 15.0 12.9 -0.7 34 6.7 CALM 0 0 0 0 1017.5 - 0.0
20/09:00pm 16.3 13.1 -0.8 31 7.4 N 6 6 3 3 1017.6 1016.2 0.0
20/08:30pm 18.2 15.0 -0.6 28 8.3 N 6 7 3 4 1017.5 - 0.0
20/08:00pm 19.1 15.7 -0.8 26 8.8 N 7 9 4 5 1017.2 - 0.0
20/07:30pm 20.0 16.1 -1.2 24 9.4 N 9 11 5 6 1017.0 - 0.0
20/07:00pm 21.1 17.6 -1.4 22 10.0 NNW 7 11 4 6 1016.6 - 0.0
20/06:30pm 22.2 18.6 -1.8 20 10.7 NNW 7 9 4 5 1016.4 - 0.0
20/06:00pm 23.7 20.1 -2.0 18 11.6 NNW 7 11 4 6 1016.2 1014.8 0.0
20/05:30pm 25.2 20.4 -2.4 16 12.5 WNW 13 19 7 10 1016.0 - 0.0
20/05:00pm 25.9 21.2 -1.8 16 12.8 NNW 13 20 7 11 1015.9 - 0.0
20/04:30pm 26.2 22.2 -2.4 15 13.1 N 9 17 5 9 1015.7 - 0.0
20/04:00pm 26.5 22.6 -1.3 16 13.0 N 9 17 5 9 1015.5 - 0.0
20/03:30pm 25.9 21.2 -1.8 16 12.8 N 13 24 7 13 1015.5 - 0.0
20/03:00pm 26.4 21.6 -2.3 15 13.1 N 13 24 7 13 1015.5 1014.0 0.0
20/02:30pm 25.9 20.2 -1.0 17 12.6 NNW 19 28 10 15 1015.6 - 0.0
20/02:00pm 25.2 20.3 -0.8 18 12.1 NE 15 24 8 13 1015.8 - 0.0
20/01:30pm 25.1 19.9 -0.1 19 11.9 NNE 17 26 9 14 1016.2 - 0.0

Other Formats:

Comma delimited format used in spreadsheet applications
http://www.bom.gov.au/fwo/IDW60801/IDW60801.94317.axf

JavaScript Object Notation format (JSON) in row-major order
http://www.bom.gov.au/fwo/IDW60801/IDW60801.94317.json